This is the latest recevied weather packets stored in our database for station/object WBGG. If no packets are shown the sender has not sent any weather packets the latest 10 day(s).
| Time | Temp. | Humidity | Pressure | Rain* | Wind** | Luminosity | Snow |
|---|---|---|---|---|---|---|---|
| 1777559977 | 26.67° C | 94% | 1011 hPa | - | - | - | - |
| 1777554603 | 26.67° C | 94% | 1009 hPa | - | - | - | - |
| 1777552779 | 26.67° C | 94% | 1009 hPa | - | - | - | - |
| 1777545577 | 28.89° C | 83% | 1008 hPa | - | - | - | - |
| 1777543795 | 28.89° C | 83% | 1008 hPa | - | - | - | - |
| 1777541977 | 30° C | 79% | 1007 hPa | - | - | - | - |
| 1777536594 | 28.89° C | 83% | 1007 hPa | - | - | - | - |
| 1777534777 | 27.78° C | 88% | 1008 hPa | - | - | - | - |
| 1777532995 | 26.67° C | 94% | 1008 hPa | - | - | - | - |
| 1777531176 | 27.78° C | 88% | 1008 hPa | - | - | - | - |
| 1777529394 | 26.67° C | 88% | 1008 hPa | - | - | - | - |
| 1777527576 | 26.67° C | 88% | 1009 hPa | - | - | - | - |
| 1777525802 | 26.67° C | 88% | 1009 hPa | - | - | - | - |
| 1777525176 | 26.67° C | 88% | 1009 hPa | - | - | - | - |
| 1777524576 | 28.89° C | 83% | 1010 hPa | - | - | - | - |
| 1777523978 | 30° C | 79% | 1009 hPa | - | - | - | - |
| 1777522194 | 30.56° C | 74% | 1010 hPa | - | - | - | - |
| 1777520376 | 30.56° C | 74% | 1010 hPa | - | - | - | - |
| 1777518594 | 30° C | 79% | 1010 hPa | - | - | - | - |
| 1777516776 | 28.89° C | 79% | 1010 hPa | - | - | - | - |
| 1777514994 | 27.78° C | 83% | 1011 hPa | - | - | - | - |
| 1777513176 | 26.67° C | 94% | 1011 hPa | - | - | - | - |
| 1777511394 | 26.67° C | 94% | 1011 hPa | - | - | - | - |
| 1777509576 | 26.67° C | 94% | 1011 hPa | - | - | - | - |
| 1777500594 | 25.56° C | 94% | 1009 hPa | - | - | - | - |
* Rain since midnight (hover to see other rain measurements)
** Current wind speed in m/s (hover to see current wind gust speed)